ヤンゴン の空港の天気 - METARとTAF

ヤンゴン国際空港 ( VYYY / RGN ) - ミャンマー ヤンゴン
飛行場実況気象(Metar)
観測時間09/16 21:00 +0630 (09/16 14:30 UTC)
風向・風速南南東 3m/s
視程7000m
天気現象
全天の4割程度の雲 雲底高度 550m
全天の4割程度の雲 雲底高度 3350m
気温27℃
湿度94%
気圧1006hPa
METARVYYY 161430Z 15006KT 7000 SCT018 SCT110 27/26 Q1006 NOSIG
過去の天気等 Google飛行場航空写真 Wunderground天気予報

過去48時間のMETAR

飛行場予報(TAF)
発表時間: 9/16 17:30 +0630 (9/16 11:00 UTC)
予報対象時間: 16日18時 +0630 ~ 17日18時 +0630
風向・風速北東 3m/s
視程7000m
全天の8割程度の雲 雲底高度 550m
少しの積乱雲 雲底高度 760m
全天の4割程度の雲 雲底高度 3050m
16日18時 +0630 ~ 17日24時 +0630 に一時的に
風向・風速北東 4m/s 瞬間風速 10m/s
視程4000m
天気現象弱い雨
全天の8割程度の雲 雲底高度 460m
少しの積乱雲 雲底高度 610m
全天を覆う雲 雲底高度 2440m
17日6時 +0630 ~ 17日9時 +0630 に徐々に
風向・風速東北東 3m/s
視程5000m
全天の8割程度の雲 雲底高度 430m
TAF VYYY 161100Z 1612/1712 04005KT 7000 BKN018 FEW025CB SCT100
TEMPO 1612/1618 04008G20KT 4000 -RA BKN015 FEW020CB OVC080
BECMG 1700/1703 07006KT 5000 BKN014